DAL38 KLAX-KLAS
Flight info
| Callsign | DAL38 |
|---|---|
| Flight time | 0h 49m |
| Altitude | 29000 |
| Route | ORCKA5 MISEN RNDRZ4 |
| Aircraft | B738/M-SDE2E3FGHIRWXY/LB1 |
Departure
| Time | 2026-05-08 05:22 |
|---|---|
| Airport | Los Angeles International Airport (KLAX) |
Arrival
| Time | 2026-05-08 06:11 |
|---|---|
| Airport | Harry Reid International Airport (KLAS) |
| Time | Latitude | Longitude | Altitude | Speed | Heading |
|---|---|---|---|---|---|
| 2026-05-08 05:04 | 33.94695 | -118.40820 | 121 ft | 0 kts | 148° |
| 2026-05-08 05:07 | 33.94696 | -118.40821 | 121 ft | 1 kts | 149° |
| 2026-05-08 05:07 | 33.94706 | -118.40833 | 122 ft | 2 kts | 114° |
| 2026-05-08 05:07 | 33.94709 | -118.40852 | 122 ft | 2 kts | 81° |
| 2026-05-08 05:08 | 33.94704 | -118.40869 | 122 ft | 2 kts | 51° |
| 2026-05-08 05:08 | 33.94692 | -118.40881 | 122 ft | 2 kts | 21° |
| 2026-05-08 05:08 | 33.94677 | -118.40884 | 122 ft | 2 kts | 352° |
| 2026-05-08 05:08 | 33.94669 | -118.40881 | 122 ft | 0 kts | 345° |
| 2026-05-08 05:15 | 33.94670 | -118.40881 | 122 ft | 0 kts | 345° |
| 2026-05-08 05:16 | 33.94672 | -118.40882 | 122 ft | 1 kts | 345° |
| 2026-05-08 05:16 | 33.94680 | -118.40884 | 122 ft | 2 kts | 344° |
| 2026-05-08 05:16 | 33.94698 | -118.40891 | 122 ft | 3 kts | 344° |
| 2026-05-08 05:17 | 33.94722 | -118.40899 | 122 ft | 5 kts | 344° |
| 2026-05-08 05:17 | 33.94770 | -118.40902 | 123 ft | 8 kts | 14° |
| 2026-05-08 05:17 | 33.94828 | -118.40854 | 124 ft | 10 kts | 57° |
| 2026-05-08 05:17 | 33.94852 | -118.40772 | 123 ft | 11 kts | 75° |
| 2026-05-08 05:18 | 33.94862 | -118.40694 | 121 ft | 8 kts | 87° |
| 2026-05-08 05:18 | 33.94865 | -118.40621 | 121 ft | 8 kts | 86° |
| 2026-05-08 05:18 | 33.94871 | -118.40550 | 121 ft | 8 kts | 83° |
| 2026-05-08 05:18 | 33.94881 | -118.40443 | 120 ft | 12 kts | 83° |
| 2026-05-08 05:19 | 33.94889 | -118.40371 | 118 ft | 15 kts | 83° |
| 2026-05-08 05:19 | 33.94903 | -118.40242 | 118 ft | 14 kts | 83° |
| 2026-05-08 05:19 | 33.94915 | -118.40134 | 117 ft | 12 kts | 83° |
| 2026-05-08 05:19 | 33.94927 | -118.40019 | 115 ft | 14 kts | 83° |
| 2026-05-08 05:20 | 33.94980 | -118.39930 | 113 ft | 10 kts | 9° |
| 2026-05-08 05:20 | 33.95025 | -118.39941 | 113 ft | 9 kts | 321° |
| 2026-05-08 05:20 | 33.95036 | -118.39993 | 114 ft | 0 kts | 264° |
| 2026-05-08 05:21 | 33.95033 | -118.40025 | 114 ft | 18 kts | 264° |
| 2026-05-08 05:21 | 33.94953 | -118.40800 | 124 ft | 116 kts | 263° |
| 2026-05-08 05:21 | 33.94874 | -118.41555 | 126 ft | 154 kts | 262° |
| 2026-05-08 05:22 | 33.94641 | -118.43359 | 799 ft | 170 kts | 257° |
| 2026-05-08 05:22 | 33.94439 | -118.44289 | 1213 ft | 176 kts | 253° |
| 2026-05-08 05:22 | 33.94154 | -118.45798 | 1704 ft | 195 kts | 261° |
| 2026-05-08 05:22 | 33.93949 | -118.47457 | 2328 ft | 209 kts | 263° |
| 2026-05-08 05:23 | 33.93724 | -118.49239 | 2969 ft | 223 kts | 263° |
| 2026-05-08 05:23 | 33.93470 | -118.51152 | 3552 ft | 241 kts | 265° |
| 2026-05-08 05:23 | 33.93500 | -118.53179 | 4256 ft | 251 kts | 279° |
| 2026-05-08 05:23 | 33.93710 | -118.55325 | 4987 ft | 263 kts | 276° |
| 2026-05-08 05:24 | 33.93725 | -118.57505 | 5986 ft | 264 kts | 269° |
| 2026-05-08 05:24 | 33.93381 | -118.59654 | 6905 ft | 271 kts | 252° |
| 2026-05-08 05:24 | 33.92351 | -118.61579 | 7729 ft | 283 kts | 228° |
| 2026-05-08 05:24 | 33.90774 | -118.63008 | 8610 ft | 291 kts | 211° |
| 2026-05-08 05:25 | 33.88910 | -118.63949 | 9504 ft | 297 kts | 195° |
| 2026-05-08 05:25 | 33.86849 | -118.64145 | 10414 ft | 302 kts | 178° |
| 2026-05-08 05:25 | 33.84697 | -118.63855 | 11005 ft | 319 kts | 165° |
| 2026-05-08 05:25 | 33.82642 | -118.62735 | 11604 ft | 333 kts | 147° |
| 2026-05-08 05:26 | 33.80718 | -118.61156 | 12316 ft | 344 kts | 144° |
| 2026-05-08 05:26 | 33.78756 | -118.59498 | 13282 ft | 347 kts | 144° |
| 2026-05-08 05:26 | 33.76770 | -118.57840 | 14191 ft | 352 kts | 144° |
| 2026-05-08 05:26 | 33.74754 | -118.56181 | 15071 ft | 358 kts | 144° |
| 2026-05-08 05:27 | 33.72685 | -118.54472 | 15961 ft | 364 kts | 142° |
| 2026-05-08 05:27 | 33.70752 | -118.52510 | 16823 ft | 368 kts | 132° |
| 2026-05-08 05:27 | 33.69230 | -118.50045 | 17683 ft | 371 kts | 117° |
| 2026-05-08 05:27 | 33.68183 | -118.47231 | 18544 ft | 373 kts | 109° |
| 2026-05-08 05:28 | 33.67297 | -118.44314 | 19370 ft | 377 kts | 108° |
| 2026-05-08 05:28 | 33.66440 | -118.41335 | 20230 ft | 380 kts | 107° |
| 2026-05-08 05:28 | 33.65591 | -118.38332 | 21033 ft | 383 kts | 106° |
| 2026-05-08 05:28 | 33.64936 | -118.35262 | 21795 ft | 386 kts | 99° |
| 2026-05-08 05:29 | 33.64571 | -118.32082 | 22541 ft | 388 kts | 93° |
| 2026-05-08 05:29 | 33.64423 | -118.28856 | 23263 ft | 392 kts | 90° |
| 2026-05-08 05:29 | 33.64512 | -118.25575 | 23966 ft | 394 kts | 82° |
| 2026-05-08 05:29 | 33.65085 | -118.22348 | 24648 ft | 397 kts | 71° |
| 2026-05-08 05:30 | 33.66085 | -118.19288 | 25319 ft | 400 kts | 64° |
| 2026-05-08 05:30 | 33.67458 | -118.16397 | 26121 ft | 399 kts | 54° |
| 2026-05-08 05:30 | 33.69215 | -118.13884 | 27024 ft | 395 kts | 44° |
| 2026-05-08 05:30 | 33.71262 | -118.11719 | 27863 ft | 392 kts | 39° |
| 2026-05-08 05:31 | 33.73426 | -118.09708 | 28585 ft | 392 kts | 37° |
| 2026-05-08 05:31 | 33.75645 | -118.07748 | 28997 ft | 397 kts | 36° |
| 2026-05-08 05:31 | 33.77870 | -118.05810 | 29037 ft | 396 kts | 36° |
| 2026-05-08 05:32 | 33.82265 | -118.01962 | 29042 ft | 390 kts | 36° |
| 2026-05-08 05:32 | 33.84508 | -117.99976 | 29048 ft | 402 kts | 36° |
| 2026-05-08 05:32 | 33.87543 | -117.97270 | 29044 ft | 415 kts | 37° |
| 2026-05-08 05:33 | 33.91426 | -117.93786 | 29045 ft | 423 kts | 37° |
| 2026-05-08 05:33 | 33.96069 | -117.89565 | 29042 ft | 413 kts | 37° |
| 2026-05-08 05:34 | 34.00633 | -117.85384 | 29045 ft | 412 kts | 37° |
| 2026-05-08 05:34 | 34.05223 | -117.81174 | 29054 ft | 413 kts | 37° |
| 2026-05-08 05:35 | 34.09566 | -117.76677 | 29057 ft | 414 kts | 45° |
| 2026-05-08 05:35 | 34.13370 | -117.71463 | 29057 ft | 413 kts | 50° |
| 2026-05-08 05:36 | 34.16942 | -117.66106 | 29062 ft | 412 kts | 51° |
| 2026-05-08 05:36 | 34.20551 | -117.60650 | 29066 ft | 413 kts | 50° |
| 2026-05-08 05:37 | 34.24120 | -117.55284 | 29069 ft | 411 kts | 50° |
| 2026-05-08 05:37 | 34.27725 | -117.49890 | 29071 ft | 413 kts | 50° |
| 2026-05-08 05:38 | 34.31346 | -117.44478 | 29114 ft | 413 kts | 50° |
| 2026-05-08 05:38 | 34.34944 | -117.39095 | 29135 ft | 413 kts | 50° |
| 2026-05-08 05:39 | 34.38549 | -117.33697 | 29130 ft | 413 kts | 50° |
| 2026-05-08 05:39 | 34.42170 | -117.28270 | 29126 ft | 413 kts | 50° |
| 2026-05-08 05:40 | 34.45752 | -117.22892 | 29118 ft | 412 kts | 50° |
| 2026-05-08 05:40 | 34.49365 | -117.17461 | 29104 ft | 413 kts | 50° |
| 2026-05-08 05:41 | 34.52957 | -117.12047 | 29097 ft | 412 kts | 50° |
| 2026-05-08 05:41 | 34.56587 | -117.06632 | 29092 ft | 414 kts | 49° |
| 2026-05-08 05:42 | 34.60281 | -117.01263 | 29090 ft | 414 kts | 49° |
| 2026-05-08 05:42 | 34.63975 | -116.95911 | 29092 ft | 413 kts | 49° |
| 2026-05-08 05:43 | 34.67667 | -116.90537 | 29088 ft | 413 kts | 49° |
| 2026-05-08 05:43 | 34.71342 | -116.85169 | 29089 ft | 413 kts | 49° |
| 2026-05-08 05:44 | 34.75006 | -116.79803 | 29097 ft | 412 kts | 49° |
| 2026-05-08 05:44 | 34.78669 | -116.74432 | 29096 ft | 413 kts | 49° |
| 2026-05-08 05:45 | 34.82321 | -116.69067 | 29076 ft | 413 kts | 49° |
| 2026-05-08 05:45 | 34.86148 | -116.63830 | 29055 ft | 411 kts | 43° |
| 2026-05-08 05:46 | 34.90485 | -116.59315 | 29034 ft | 411 kts | 37° |
| 2026-05-08 05:46 | 34.94926 | -116.55111 | 29026 ft | 399 kts | 37° |
| 2026-05-08 05:47 | 34.99281 | -116.50991 | 29017 ft | 397 kts | 37° |
| 2026-05-08 05:47 | 35.03650 | -116.46800 | 29007 ft | 399 kts | 37° |
| 2026-05-08 05:48 | 35.08008 | -116.42580 | 28997 ft | 398 kts | 37° |
| 2026-05-08 05:48 | 35.12144 | -116.38179 | 28991 ft | 398 kts | 43° |
| 2026-05-08 05:49 | 35.15969 | -116.33272 | 28787 ft | 403 kts | 46° |
| 2026-05-08 05:49 | 35.17880 | -116.30737 | 28263 ft | 403 kts | 46° |
| 2026-05-08 05:49 | 35.19726 | -116.28288 | 27642 ft | 396 kts | 46° |
| 2026-05-08 05:49 | 35.21603 | -116.25809 | 27096 ft | 395 kts | 45° |
| 2026-05-08 05:50 | 35.23516 | -116.23287 | 26600 ft | 413 kts | 46° |
| 2026-05-08 05:50 | 35.25455 | -116.20667 | 26042 ft | 406 kts | 46° |
| 2026-05-08 05:50 | 35.27255 | -116.18184 | 25473 ft | 387 kts | 47° |
| 2026-05-08 05:50 | 35.29004 | -116.15752 | 24940 ft | 369 kts | 47° |
| 2026-05-08 05:51 | 35.30648 | -116.13463 | 24445 ft | 358 kts | 47° |
| 2026-05-08 05:51 | 35.32313 | -116.11156 | 23926 ft | 368 kts | 47° |
| 2026-05-08 05:51 | 35.34036 | -116.08780 | 23397 ft | 371 kts | 47° |
| 2026-05-08 05:51 | 35.35742 | -116.06429 | 22885 ft | 371 kts | 47° |
| 2026-05-08 05:52 | 35.37437 | -116.04095 | 22371 ft | 368 kts | 47° |
| 2026-05-08 05:52 | 35.39131 | -116.01761 | 21857 ft | 364 kts | 46° |
| 2026-05-08 05:52 | 35.40814 | -115.99440 | 21359 ft | 361 kts | 46° |
| 2026-05-08 05:52 | 35.42468 | -115.97160 | 20852 ft | 358 kts | 46° |
| 2026-05-08 05:53 | 35.44114 | -115.94891 | 20363 ft | 355 kts | 46° |
| 2026-05-08 05:53 | 35.45738 | -115.92651 | 19883 ft | 353 kts | 46° |
| 2026-05-08 05:53 | 35.47373 | -115.90392 | 19371 ft | 350 kts | 47° |
| 2026-05-08 05:53 | 35.48967 | -115.88191 | 18895 ft | 348 kts | 47° |
| 2026-05-08 05:54 | 35.50579 | -115.85962 | 18407 ft | 346 kts | 47° |
| 2026-05-08 05:54 | 35.52156 | -115.83780 | 17918 ft | 341 kts | 47° |
| 2026-05-08 05:54 | 35.54227 | -115.80911 | 17263 ft | 338 kts | 47° |
| 2026-05-08 05:54 | 35.55271 | -115.79464 | 16894 ft | 336 kts | 47° |
| 2026-05-08 05:55 | 35.56804 | -115.77339 | 16490 ft | 330 kts | 46° |
| 2026-05-08 05:55 | 35.58325 | -115.75230 | 16216 ft | 330 kts | 46° |
| 2026-05-08 05:55 | 35.59874 | -115.73090 | 16108 ft | 330 kts | 46° |
| 2026-05-08 05:55 | 35.61406 | -115.71009 | 16115 ft | 329 kts | 46° |
| 2026-05-08 05:56 | 35.62955 | -115.68928 | 16120 ft | 330 kts | 45° |
| 2026-05-08 05:56 | 35.64502 | -115.66855 | 16127 ft | 330 kts | 45° |
| 2026-05-08 05:56 | 35.66055 | -115.64768 | 16132 ft | 331 kts | 46° |
| 2026-05-08 05:56 | 35.67603 | -115.62678 | 16135 ft | 330 kts | 46° |
| 2026-05-08 05:57 | 35.69142 | -115.60596 | 16150 ft | 331 kts | 46° |
| 2026-05-08 05:57 | 35.70701 | -115.58487 | 16149 ft | 330 kts | 45° |
| 2026-05-08 05:57 | 35.72278 | -115.56479 | 16152 ft | 329 kts | 42° |
| 2026-05-08 05:57 | 35.74052 | -115.54678 | 16164 ft | 328 kts | 34° |
| 2026-05-08 05:58 | 35.75967 | -115.53185 | 16171 ft | 328 kts | 28° |
| 2026-05-08 05:58 | 35.77972 | -115.51814 | 16173 ft | 328 kts | 27° |
| 2026-05-08 05:58 | 35.79967 | -115.50492 | 16174 ft | 327 kts | 27° |
| 2026-05-08 05:58 | 35.81986 | -115.49137 | 16171 ft | 327 kts | 27° |
| 2026-05-08 05:59 | 35.83976 | -115.47774 | 15930 ft | 330 kts | 28° |
| 2026-05-08 05:59 | 35.85986 | -115.46374 | 15472 ft | 328 kts | 28° |
| 2026-05-08 05:59 | 35.87935 | -115.45005 | 15035 ft | 323 kts | 28° |
| 2026-05-08 05:59 | 35.89875 | -115.43639 | 14600 ft | 319 kts | 28° |
| 2026-05-08 06:00 | 35.91808 | -115.42280 | 14164 ft | 318 kts | 28° |
| 2026-05-08 06:00 | 35.93728 | -115.40937 | 13721 ft | 316 kts | 28° |
| 2026-05-08 06:00 | 35.95638 | -115.39606 | 13289 ft | 314 kts | 28° |
| 2026-05-08 06:00 | 35.97543 | -115.38278 | 12852 ft | 312 kts | 27° |
| 2026-05-08 06:01 | 35.99359 | -115.36835 | 12426 ft | 313 kts | 36° |
| 2026-05-08 06:01 | 36.00813 | -115.34854 | 11999 ft | 316 kts | 58° |
| 2026-05-08 06:01 | 36.01474 | -115.32266 | 11584 ft | 323 kts | 82° |
| 2026-05-08 06:01 | 36.01434 | -115.29481 | 11150 ft | 325 kts | 91° |
| 2026-05-08 06:02 | 36.01259 | -115.26705 | 10695 ft | 324 kts | 91° |
| 2026-05-08 06:02 | 36.01083 | -115.23949 | 10256 ft | 323 kts | 91° |
| 2026-05-08 06:02 | 36.00924 | -115.21184 | 9946 ft | 318 kts | 91° |
| 2026-05-08 06:02 | 36.00783 | -115.18471 | 9764 ft | 323 kts | 91° |
| 2026-05-08 06:03 | 36.00646 | -115.15688 | 9424 ft | 324 kts | 91° |
| 2026-05-08 06:03 | 36.00508 | -115.12927 | 9324 ft | 317 kts | 91° |
| 2026-05-08 06:03 | 36.00370 | -115.10197 | 9206 ft | 322 kts | 91° |
| 2026-05-08 06:03 | 36.00230 | -115.07391 | 8838 ft | 325 kts | 91° |
| 2026-05-08 06:04 | 36.00090 | -115.04675 | 8550 ft | 317 kts | 91° |
| 2026-05-08 06:04 | 35.99950 | -115.01975 | 8223 ft | 311 kts | 92° |
| 2026-05-08 06:04 | 35.99834 | -114.99328 | 7826 ft | 308 kts | 90° |
| 2026-05-08 06:04 | 35.99807 | -114.96717 | 7367 ft | 307 kts | 89° |
| 2026-05-08 06:05 | 35.99909 | -114.94084 | 6869 ft | 306 kts | 79° |
| 2026-05-08 06:05 | 36.00567 | -114.91699 | 6602 ft | 277 kts | 59° |
| 2026-05-08 06:05 | 36.01682 | -114.89929 | 6360 ft | 246 kts | 41° |
| 2026-05-08 06:05 | 36.02980 | -114.88755 | 6124 ft | 222 kts | 27° |
| 2026-05-08 06:06 | 36.04363 | -114.88077 | 5928 ft | 207 kts | 11° |
| 2026-05-08 06:06 | 36.05782 | -114.87859 | 5733 ft | 203 kts | 357° |
| 2026-05-08 06:06 | 36.07161 | -114.88061 | 5540 ft | 199 kts | 339° |
| 2026-05-08 06:06 | 36.08257 | -114.89025 | 5355 ft | 193 kts | 302° |
| 2026-05-08 06:07 | 36.08610 | -114.90561 | 5212 ft | 191 kts | 263° |
| 2026-05-08 06:07 | 36.08128 | -114.92077 | 5185 ft | 191 kts | 239° |
| 2026-05-08 06:07 | 36.07576 | -114.93584 | 4980 ft | 195 kts | 257° |
| 2026-05-08 06:07 | 36.07428 | -114.95223 | 4711 ft | 187 kts | 267° |
| 2026-05-08 06:08 | 36.07386 | -114.96789 | 4504 ft | 179 kts | 268° |
| 2026-05-08 06:08 | 36.07366 | -114.98313 | 4251 ft | 180 kts | 268° |
| 2026-05-08 06:08 | 36.07361 | -114.99857 | 4010 ft | 178 kts | 268° |
| 2026-05-08 06:08 | 36.07359 | -115.01379 | 3778 ft | 178 kts | 268° |
| 2026-05-08 06:09 | 36.07357 | -115.02911 | 3550 ft | 176 kts | 268° |
| 2026-05-08 06:09 | 36.07358 | -115.04401 | 3350 ft | 177 kts | 268° |
| 2026-05-08 06:09 | 36.07360 | -115.05918 | 3091 ft | 170 kts | 268° |
| 2026-05-08 06:09 | 36.07362 | -115.07313 | 2890 ft | 158 kts | 268° |
| 2026-05-08 06:10 | 36.07362 | -115.08653 | 2697 ft | 156 kts | 268° |
| 2026-05-08 06:10 | 36.07362 | -115.09991 | 2501 ft | 156 kts | 268° |
| 2026-05-08 06:10 | 36.07359 | -115.11328 | 2317 ft | 156 kts | 268° |
| 2026-05-08 06:10 | 36.07361 | -115.12685 | 2107 ft | 155 kts | 269° |
| 2026-05-08 06:11 | 36.07358 | -115.13844 | 2098 ft | 110 kts | 271° |
| 2026-05-08 06:11 | 36.07359 | -115.14474 | 2117 ft | 57 kts | 270° |
| 2026-05-08 06:11 | 36.07388 | -115.14840 | 2129 ft | 31 kts | 286° |
| 2026-05-08 06:11 | 36.07446 | -115.15004 | 2134 ft | 6 kts | 300° |
| 2026-05-08 06:12 | 36.07446 | -115.15005 | 2134 ft | 0 kts | 300° |
| 2026-05-08 06:12 | 36.07447 | -115.15007 | 2134 ft | 1 kts | 300° |
| 2026-05-08 06:13 | 36.07459 | -115.15032 | 2135 ft | 6 kts | 301° |
| 2026-05-08 06:13 | 36.07492 | -115.15095 | 2136 ft | 11 kts | 305° |
| 2026-05-08 06:13 | 36.07563 | -115.15161 | 2137 ft | 14 kts | 337° |
| 2026-05-08 06:13 | 36.07677 | -115.15126 | 2134 ft | 21 kts | 20° |
| 2026-05-08 06:14 | 36.07792 | -115.15024 | 2128 ft | 17 kts | 84° |
| 2026-05-08 06:14 | 36.07790 | -115.14869 | 2122 ft | 19 kts | 93° |
| 2026-05-08 06:14 | 36.07779 | -115.14686 | 2118 ft | 22 kts | 95° |
| 2026-05-08 06:14 | 36.07767 | -115.14494 | 2112 ft | 23 kts | 94° |
| 2026-05-08 06:15 | 36.07760 | -115.14291 | 2105 ft | 23 kts | 93° |
| 2026-05-08 06:15 | 36.07754 | -115.14087 | 2100 ft | 24 kts | 91° |
| 2026-05-08 06:15 | 36.07754 | -115.13872 | 2093 ft | 17 kts | 87° |
| 2026-05-08 06:15 | 36.07790 | -115.13805 | 2091 ft | 8 kts | 21° |
| 2026-05-08 06:16 | 36.07856 | -115.13786 | 2089 ft | 11 kts | 13° |
| 2026-05-08 06:16 | 36.07949 | -115.13757 | 2085 ft | 15 kts | 13° |
| 2026-05-08 06:16 | 36.08050 | -115.13731 | 2083 ft | 11 kts | 23° |
| 2026-05-08 06:16 | 36.08073 | -115.13706 | 2082 ft | 4 kts | 44° |
| 2026-05-08 06:17 | 36.08089 | -115.13686 | 2081 ft | 0 kts | 44° |